Strongs, Michigan
Current Conditions -  °F | °C
As of 5:34 AM on Sunday 21 Dec 2014 (Local Time) from KERY Reporting Station
Overcast Overcast  
Wind Chill: -8°   Ceiling: 1100
Heat Index: -3°   Visibility: 10mi
Dew Point: -4°   Wind: 8mph
Humidity: 94%   Direction: 120°ESE
Pressure: 30.19"   Gusts: NA
Location:  46.36°N, 84.97°W
Report Text: KERY 211034Z AUTO 12007KT 10SM BKN011 BKN017 OVC028 M03/M04 A3019 RMK AO2 T10331042
Loading
Personal Weather Stations






























Interactive Weather Map New forecast layout! Learn more

10-Day Weather Forecast

Advertisements
Track Severe Weather on mobile